sensor_id;sensor_type;location;lat;lon;timestamp;pressure;altitude;pressure_sealevel;temperature;humidity
80382;BME280;69692;55.820;37.490;2023-05-10T00:00:00;100791.50;;;9.57;43.74
80382;BME280;69692;55.820;37.490;2023-05-10T00:02:26;100788.31;;;9.47;42.70
80382;BME280;69692;55.820;37.490;2023-05-10T00:04:52;100789.50;;;9.38;43.20
80382;BME280;69692;55.820;37.490;2023-05-10T00:07:18;100774.38;;;9.37;42.39
80382;BME280;69692;55.820;37.490;2023-05-10T00:09:43;100784.38;;;9.43;44.37
80382;BME280;69692;55.820;37.490;2023-05-10T00:12:09;100773.41;;;9.45;44.15
80382;BME280;69692;55.820;37.490;2023-05-10T00:14:35;100780.06;;;9.49;43.41
80382;BME280;69692;55.820;37.490;2023-05-10T00:17:01;100791.63;;;9.49;46.89
80382;BME280;69692;55.820;37.490;2023-05-10T00:19:26;100789.53;;;9.45;48.11
80382;BME280;69692;55.820;37.490;2023-05-10T00:21:52;100783.47;;;9.36;48.28
80382;BME280;69692;55.820;37.490;2023-05-10T00:24:18;100787.19;;;9.35;48.16
80382;BME280;69692;55.820;37.490;2023-05-10T00:26:44;100785.09;;;9.31;48.22
80382;BME280;69692;55.820;37.490;2023-05-10T00:29:10;100786.31;;;9.28;49.38
80382;BME280;69692;55.820;37.490;2023-05-10T00:31:36;100786.31;;;9.28;48.57
80382;BME280;69692;55.820;37.490;2023-05-10T00:34:01;100782.00;;;9.34;44.21
80382;BME280;69692;55.820;37.490;2023-05-10T00:36:27;100777.06;;;9.37;43.08
80382;BME280;69692;55.820;37.490;2023-05-10T00:38:53;100784.38;;;9.43;42.26
80382;BME280;69692;55.820;37.490;2023-05-10T00:41:19;100777.56;;;9.47;42.07
80382;BME280;69692;55.820;37.490;2023-05-10T00:43:45;100782.53;;;9.50;42.74
80382;BME280;69692;55.820;37.490;2023-05-10T00:46:11;100788.56;;;9.52;44.86
80382;BME280;69692;55.820;37.490;2023-05-10T00:48:37;100787.28;;;9.48;45.83
80382;BME280;69692;55.820;37.490;2023-05-10T00:51:03;100789.94;;;9.42;46.46
80382;BME280;69692;55.820;37.490;2023-05-10T00:53:31;100793.19;;;9.37;48.58
80382;BME280;69692;55.820;37.490;2023-05-10T00:55:58;100788.41;;;9.33;49.01
80382;BME280;69692;55.820;37.490;2023-05-10T00:58:25;100791.91;;;9.33;49.61
80382;BME280;69692;55.820;37.490;2023-05-10T01:00:54;100798.91;;;9.27;48.69
80382;BME280;69692;55.820;37.490;2023-05-10T01:03:21;100784.84;;;9.25;49.67
80382;BME280;69692;55.820;37.490;2023-05-10T01:05:47;100779.47;;;9.25;46.68
80382;BME280;69692;55.820;37.490;2023-05-10T01:08:13;100786.69;;;9.25;48.51
80382;BME280;69692;55.820;37.490;2023-05-10T01:10:39;100781.31;;;9.25;46.81
80382;BME280;69692;55.820;37.490;2023-05-10T01:13:05;100790.84;;;9.27;47.87
80382;BME280;69692;55.820;37.490;2023-05-10T01:15:31;100786.50;;;9.26;46.16
80382;BME280;69692;55.820;37.490;2023-05-10T01:17:57;100783.50;;;9.15;47.97
80382;BME280;69692;55.820;37.490;2023-05-10T01:20:23;100782.78;;;9.06;48.94
80382;BME280;69692;55.820;37.490;2023-05-10T01:23:31;100784.44;;;9.07;45.75
80382;BME280;69692;55.820;37.490;2023-05-10T01:26:11;100783.91;;;9.12;49.88
80382;BME280;69692;55.820;37.490;2023-05-10T01:43:38;100795.34;;;8.99;49.55
80382;BME280;69692;55.820;37.490;2023-05-10T01:46:12;100790.34;;;8.96;49.84
80382;BME280;69692;55.820;37.490;2023-05-10T01:48:44;100785.19;;;8.94;49.59
80382;BME280;69692;55.820;37.490;2023-05-10T01:51:15;100785.19;;;8.94;49.29
80382;BME280;69692;55.820;37.490;2023-05-10T01:53:44;100782.31;;;8.96;49.66
80382;BME280;69692;55.820;37.490;2023-05-10T01:56:11;100785.81;;;8.96;50.39
80382;BME280;69692;55.820;37.490;2023-05-10T01:58:39;100778.59;;;8.97;49.23
80382;BME280;69692;55.820;37.490;2023-05-10T02:01:08;100779.03;;;9.01;50.86
80382;BME280;69692;55.820;37.490;2023-05-10T02:03:35;100779.00;;;8.94;49.75
80382;BME280;69692;55.820;37.490;2023-05-10T02:06:03;100774.66;;;8.93;51.10
80382;BME280;69692;55.820;37.490;2023-05-10T02:08:30;100779.00;;;8.94;47.08
80382;BME280;69692;55.820;37.490;2023-05-10T02:10:58;100772.19;;;8.98;51.53
80382;BME280;69692;55.820;37.490;2023-05-10T02:13:26;100769.31;;;9.00;46.97
80382;BME280;69692;55.820;37.490;2023-05-10T02:15:53;100776.53;;;8.99;50.56
80382;BME280;69692;55.820;37.490;2023-05-10T02:18:20;100777.78;;;8.96;47.68
80382;BME280;69692;55.820;37.490;2023-05-10T02:20:48;100773.03;;;8.99;47.24
80382;BME280;69692;55.820;37.490;2023-05-10T02:23:15;100772.41;;;8.96;49.48
80382;BME280;69692;55.820;37.490;2023-05-10T02:25:43;100772.41;;;8.96;48.08
80382;BME280;69692;55.820;37.490;2023-05-10T02:28:11;100771.81;;;9.01;48.84
80382;BME280;69692;55.820;37.490;2023-05-10T02:30:37;100766.69;;;9.06;47.59
80382;BME280;69692;55.820;37.490;2023-05-10T02:33:05;100760.75;;;9.11;45.43
80382;BME280;69692;55.820;37.490;2023-05-10T02:35:31;100770.72;;;9.17;46.56
80382;BME280;69692;55.820;37.490;2023-05-10T02:37:59;100767.84;;;9.18;49.08
80382;BME280;69692;55.820;37.490;2023-05-10T02:40:27;100759.97;;;9.17;46.15
80382;BME280;69692;55.820;37.490;2023-05-10T02:42:56;100762.25;;;9.20;46.32
80382;BME280;69692;55.820;37.490;2023-05-10T02:45:25;100757.91;;;9.19;47.03
80382;BME280;69692;55.820;37.490;2023-05-10T02:47:54;100753.38;;;9.19;45.75
80382;BME280;69692;55.820;37.490;2023-05-10T02:50:21;100761.44;;;9.19;45.71
80382;BME280;69692;55.820;37.490;2023-05-10T02:52:50;100752.00;;;9.23;45.51
80382;BME280;69692;55.820;37.490;2023-05-10T02:55:22;100760.88;;;9.24;45.75
80382;BME280;69692;55.820;37.490;2023-05-10T02:57:57;100760.69;;;9.25;48.55
80382;BME280;69692;55.820;37.490;2023-05-10T03:00:24;100758.75;;;9.19;49.38
80382;BME280;69692;55.820;37.490;2023-05-10T03:02:50;100758.56;;;9.21;48.41
80382;BME280;69692;55.820;37.490;2023-05-10T03:05:16;100764.94;;;9.20;46.55
80382;BME280;69692;55.820;37.490;2023-05-10T03:07:42;100759.22;;;9.23;46.11
80382;BME280;69692;55.820;37.490;2023-05-10T03:10:08;100754.47;;;9.25;46.00
80382;BME280;69692;55.820;37.490;2023-05-10T03:12:44;100755.94;;;9.27;45.67
80382;BME280;69692;55.820;37.490;2023-05-10T03:15:19;100751.78;;;9.25;45.63
80382;BME280;69692;55.820;37.490;2023-05-10T03:17:54;100755.88;;;9.21;45.23
80382;BME280;69692;55.820;37.490;2023-05-10T03:20:42;100750.50;;;9.21;45.47
80382;BME280;69692;55.820;37.490;2023-05-10T03:23:12;100759.84;;;9.25;45.29
80382;BME280;69692;55.820;37.490;2023-05-10T03:25:39;100749.94;;;9.25;45.44
80382;BME280;69692;55.820;37.490;2023-05-10T03:28:07;100751.19;;;9.30;45.54
80382;BME280;69692;55.820;37.490;2023-05-10T03:30:35;100758.66;;;9.34;45.34
80382;BME280;69692;55.820;37.490;2023-05-10T03:33:05;100754.13;;;9.35;45.31
80382;BME280;69692;55.820;37.490;2023-05-10T03:35:38;100750.19;;;9.37;46.15
80382;BME280;69692;55.820;37.490;2023-05-10T03:38:05;100751.91;;;9.38;46.15
80382;BME280;69692;55.820;37.490;2023-05-10T03:40:31;100749.84;;;9.40;46.07
80382;BME280;69692;55.820;37.490;2023-05-10T03:42:58;100753.59;;;9.46;46.61
80382;BME280;69692;55.820;37.490;2023-05-10T03:45:25;100748.66;;;9.49;46.11
80382;BME280;69692;55.820;37.490;2023-05-10T03:47:50;100750.09;;;9.52;45.65
80382;BME280;69692;55.820;37.490;2023-05-10T03:50:16;100749.75;;;9.55;45.93
80382;BME280;69692;55.820;37.490;2023-05-10T03:52:42;100747.63;;;9.50;45.54
80382;BME280;69692;55.820;37.490;2023-05-10T03:55:08;100750.69;;;9.47;45.71
80382;BME280;69692;55.820;37.490;2023-05-10T03:57:34;100753.38;;;9.47;45.77
80382;BME280;69692;55.820;37.490;2023-05-10T04:00:01;100744.72;;;9.52;45.99
80382;BME280;69692;55.820;37.490;2023-05-10T04:02:29;100749.13;;;9.60;46.07
80382;BME280;69692;55.820;37.490;2023-05-10T04:04:56;100751.22;;;9.64;46.23
80382;BME280;69692;55.820;37.490;2023-05-10T04:07:21;100747.31;;;9.67;45.71
80382;BME280;69692;55.820;37.490;2023-05-10T04:09:47;100750.25;;;9.72;45.55
80382;BME280;69692;55.820;37.490;2023-05-10T04:12:13;100745.53;;;9.80;46.07
80382;BME280;69692;55.820;37.490;2023-05-10T04:14:39;100737.31;;;9.89;45.17
80382;BME280;69692;55.820;37.490;2023-05-10T04:17:04;100740.44;;;9.92;44.77
80382;BME280;69692;55.820;37.490;2023-05-10T04:19:31;100733.44;;;9.98;44.81
80382;BME280;69692;55.820;37.490;2023-05-10T04:21:58;100732.84;;;10.02;45.08
80382;BME280;69692;55.820;37.490;2023-05-10T04:24:24;100735.31;;;10.04;45.70
80382;BME280;69692;55.820;37.490;2023-05-10T04:26:49;100731.81;;;10.10;45.95
80382;BME280;69692;55.820;37.490;2023-05-10T04:29:15;100727.09;;;10.12;45.58
80382;BME280;69692;55.820;37.490;2023-05-10T04:31:41;100735.19;;;10.19;44.98
80382;BME280;69692;55.820;37.490;2023-05-10T04:34:06;100732.53;;;10.25;45.10
80382;BME280;69692;55.820;37.490;2023-05-10T04:36:32;100729.88;;;10.32;44.25
80382;BME280;69692;55.820;37.490;2023-05-10T04:39:00;100734.22;;;10.33;43.74
80382;BME280;69692;55.820;37.490;2023-05-10T04:41:26;100730.72;;;10.39;43.74
80382;BME280;69692;55.820;37.490;2023-05-10T04:43:52;100728.88;;;10.46;43.39
80382;BME280;69692;55.820;37.490;2023-05-10T04:46:17;100733.66;;;10.51;42.99
80382;BME280;69692;55.820;37.490;2023-05-10T04:48:43;100717.72;;;10.56;43.31
80382;BME280;69692;55.820;37.490;2023-05-10T04:51:09;100726.22;;;10.59;42.65
80382;BME280;69692;55.820;37.490;2023-05-10T04:53:34;100714.84;;;10.57;43.06
80382;BME280;69692;55.820;37.490;2023-05-10T04:56:00;100720.00;;;10.65;44.02
80382;BME280;69692;55.820;37.490;2023-05-10T04:58:26;100710.94;;;10.73;43.83
80382;BME280;69692;55.820;37.490;2023-05-10T05:00:51;100709.25;;;10.65;42.67
80382;BME280;69692;55.820;37.490;2023-05-10T05:03:17;100713.63;;;10.73;42.76
80382;BME280;69692;55.820;37.490;2023-05-10T05:05:43;100713.63;;;10.80;42.94
80382;BME280;69692;55.820;37.490;2023-05-10T05:08:10;100712.78;;;10.86;42.46
80382;BME280;69692;55.820;37.490;2023-05-10T05:10:35;100714.03;;;10.96;42.63
80382;BME280;69692;55.820;37.490;2023-05-10T05:13:01;100707.00;;;11.09;42.16
80382;BME280;69692;55.820;37.490;2023-05-10T05:15:27;100709.91;;;11.20;41.68
80382;BME280;69692;55.820;37.490;2023-05-10T05:17:53;100701.59;;;11.35;41.48
80382;BME280;69692;55.820;37.490;2023-05-10T05:20:19;100710.28;;;11.44;40.85
80382;BME280;69692;55.820;37.490;2023-05-10T05:22:44;100704.06;;;11.50;40.40
80382;BME280;69692;55.820;37.490;2023-05-10T05:25:10;100704.44;;;11.60;40.46
80382;BME280;69692;55.820;37.490;2023-05-10T05:27:37;100699.88;;;11.67;39.85
80382;BME280;69692;55.820;37.490;2023-05-10T05:30:03;100701.31;;;11.76;40.29
80382;BME280;69692;55.820;37.490;2023-05-10T05:32:30;100687.38;;;11.86;39.84
80382;BME280;69692;55.820;37.490;2023-05-10T05:34:56;100688.00;;;11.88;39.40
80382;BME280;69692;55.820;37.490;2023-05-10T05:37:21;100685.06;;;11.96;39.51
80382;BME280;69692;55.820;37.490;2023-05-10T05:39:48;100688.81;;;11.88;39.26
80382;BME280;69692;55.820;37.490;2023-05-10T05:42:14;100694.00;;;11.97;39.17
80382;BME280;69692;55.820;37.490;2023-05-10T05:44:41;100692.72;;;12.06;38.82
80382;BME280;69692;55.820;37.490;2023-05-10T05:47:07;100688.16;;;12.00;39.00
80382;BME280;69692;55.820;37.490;2023-05-10T05:49:33;100684.97;;;12.16;45.67
80382;BME280;69692;55.820;37.490;2023-05-10T05:52:03;100681.78;;;13.38;38.33
80382;BME280;69692;55.820;37.490;2023-05-10T05:54:29;100682.06;;;13.05;37.76
80382;BME280;69692;55.820;37.490;2023-05-10T05:56:59;100687.66;;;12.86;37.99
80382;BME280;69692;55.820;37.490;2023-05-10T05:59:26;100677.84;;;12.66;38.60
80382;BME280;69692;55.820;37.490;2023-05-10T06:01:51;100677.84;;;12.66;37.86
80382;BME280;69692;55.820;37.490;2023-05-10T06:04:18;100681.97;;;12.69;37.28
80382;BME280;69692;55.820;37.490;2023-05-10T06:06:44;100683.63;;;12.70;37.93
80382;BME280;69692;55.820;37.490;2023-05-10T06:09:10;100685.50;;;12.69;37.70
80382;BME280;69692;55.820;37.490;2023-05-10T06:11:36;100683.25;;;12.66;38.62
80382;BME280;69692;55.820;37.490;2023-05-10T06:14:02;100682.91;;;12.81;38.51
80382;BME280;69692;55.820;37.490;2023-05-10T06:16:30;100681.78;;;12.95;38.52
80382;BME280;69692;55.820;37.490;2023-05-10T06:18:56;100670.28;;;13.00;39.42
80382;BME280;69692;55.820;37.490;2023-05-10T06:21:22;100673.69;;;13.13;37.84
80382;BME280;69692;55.820;37.490;2023-05-10T06:23:48;100671.38;;;13.17;37.06
80382;BME280;69692;55.820;37.490;2023-05-10T06:26:13;100661.38;;;13.24;36.75
80382;BME280;69692;55.820;37.490;2023-05-10T06:28:39;100672.09;;;13.31;36.80
80382;BME280;69692;55.820;37.490;2023-05-10T06:31:06;100666.63;;;13.37;35.63
80382;BME280;69692;55.820;37.490;2023-05-10T06:33:32;100659.28;;;13.45;36.01
80382;BME280;69692;55.820;37.490;2023-05-10T06:35:58;100667.91;;;13.53;35.94
80382;BME280;69692;55.820;37.490;2023-05-10T06:38:23;100663.28;;;13.60;35.77
80382;BME280;69692;55.820;37.490;2023-05-10T06:40:49;100656.28;;;13.71;35.71
80382;BME280;69692;55.820;37.490;2023-05-10T06:43:15;100657.25;;;13.77;35.54
80382;BME280;69692;55.820;37.490;2023-05-10T06:45:41;100652.38;;;13.85;35.20
80382;BME280;69692;55.820;37.490;2023-05-10T06:48:07;100647.56;;;13.87;34.78
80382;BME280;69692;55.820;37.490;2023-05-10T06:50:33;100646.31;;;13.71;35.46
80382;BME280;69692;55.820;37.490;2023-05-10T06:52:59;100645.50;;;13.83;35.06
80382;BME280;69692;55.820;37.490;2023-05-10T06:55:25;100646.28;;;13.90;34.01
80382;BME280;69692;55.820;37.490;2023-05-10T06:57:51;100651.97;;;13.82;34.38
80382;BME280;69692;55.820;37.490;2023-05-10T07:00:17;100637.25;;;13.78;34.08
80382;BME280;69692;55.820;37.490;2023-05-10T07:02:43;100649.28;;;13.82;34.71
80382;BME280;69692;55.820;37.490;2023-05-10T07:05:09;100645.81;;;13.93;33.95
80382;BME280;69692;55.820;37.490;2023-05-10T07:07:35;100643.63;;;13.83;34.17
80382;BME280;69692;55.820;37.490;2023-05-10T07:10:01;100644.63;;;13.89;34.38
80382;BME280;69692;55.820;37.490;2023-05-10T07:12:29;100642.66;;;13.96;34.89
80382;BME280;69692;55.820;37.490;2023-05-10T07:14:55;100644.44;;;14.02;34.69
80382;BME280;69692;55.820;37.490;2023-05-10T07:17:21;100644.81;;;14.06;34.34
80382;BME280;69692;55.820;37.490;2023-05-10T07:19:46;100643.75;;;14.07;34.50
80382;BME280;69692;55.820;37.490;2023-05-10T07:22:12;100640.41;;;14.23;34.18
80382;BME280;69692;55.820;37.490;2023-05-10T07:24:38;100635.16;;;14.40;33.45
80382;BME280;69692;55.820;37.490;2023-05-10T07:27:03;100635.59;;;14.55;33.22
80382;BME280;69692;55.820;37.490;2023-05-10T07:29:29;100630.19;;;14.67;33.35
80382;BME280;69692;55.820;37.490;2023-05-10T07:31:55;100625.25;;;14.64;32.14
80382;BME280;69692;55.820;37.490;2023-05-10T07:34:21;100630.78;;;14.69;32.33
80382;BME280;69692;55.820;37.490;2023-05-10T07:36:47;100631.97;;;14.84;32.18
80382;BME280;69692;55.820;37.490;2023-05-10T07:39:13;100628.34;;;14.90;31.36
80382;BME280;69692;55.820;37.490;2023-05-10T07:41:38;100622.47;;;15.05;31.90
80382;BME280;69692;55.820;37.490;2023-05-10T07:44:05;100626.59;;;15.08;32.07
80382;BME280;69692;55.820;37.490;2023-05-10T07:46:31;100623.03;;;14.96;31.04
80382;BME280;69692;55.820;37.490;2023-05-10T07:48:56;100623.63;;;15.09;30.79
80382;BME280;69692;55.820;37.490;2023-05-10T07:51:22;100617.84;;;15.29;31.44
80382;BME280;69692;55.820;37.490;2023-05-10T07:53:48;100617.72;;;15.47;31.29
80382;BME280;69692;55.820;37.490;2023-05-10T07:56:21;100619.41;;;15.77;30.23
80382;BME280;69692;55.820;37.490;2023-05-10T07:58:47;100613.53;;;16.08;29.57
80382;BME280;69692;55.820;37.490;2023-05-10T08:01:13;100610.50;;;16.22;29.51
80382;BME280;69692;55.820;37.490;2023-05-10T08:03:39;100608.09;;;16.37;29.88
80382;BME280;69692;55.820;37.490;2023-05-10T08:06:04;100611.00;;;16.19;28.62
80382;BME280;69692;55.820;37.490;2023-05-10T08:08:31;100606.75;;;16.23;29.33
80382;BME280;69692;55.820;37.490;2023-05-10T08:10:56;100605.44;;;16.42;28.89
80382;BME280;69692;55.820;37.490;2023-05-10T08:13:22;100603.22;;;16.56;28.17
80382;BME280;69692;55.820;37.490;2023-05-10T08:15:48;100598.38;;;16.41;26.54
80382;BME280;69692;55.820;37.490;2023-05-10T08:18:13;100585.44;;;16.65;26.92
80382;BME280;69692;55.820;37.490;2023-05-10T08:20:39;100587.91;;;17.00;26.74
80382;BME280;69692;55.820;37.490;2023-05-10T08:23:05;100586.91;;;17.06;26.71
80382;BME280;69692;55.820;37.490;2023-05-10T08:25:31;100589.13;;;17.09;26.61
80382;BME280;69692;55.820;37.490;2023-05-10T08:27:57;100580.31;;;17.41;26.41
80382;BME280;69692;55.820;37.490;2023-05-10T08:30:23;100574.78;;;17.74;27.41
80382;BME280;69692;55.820;37.490;2023-05-10T08:32:49;100576.53;;;17.85;26.35
80382;BME280;69692;55.820;37.490;2023-05-10T08:35:15;100572.06;;;18.01;26.17
80382;BME280;69692;55.820;37.490;2023-05-10T08:37:41;100574.88;;;17.84;25.12
80382;BME280;69692;55.820;37.490;2023-05-10T08:40:08;100573.34;;;17.94;25.66
80382;BME280;69692;55.820;37.490;2023-05-10T08:42:36;100567.59;;;17.90;25.60
80382;BME280;69692;55.820;37.490;2023-05-10T08:45:07;100575.50;;;18.18;24.94
80382;BME280;69692;55.820;37.490;2023-05-10T08:47:35;100564.00;;;18.43;24.34
80382;BME280;69692;55.820;37.490;2023-05-10T08:50:02;100568.88;;;18.41;24.59
80382;BME280;69692;55.820;37.490;2023-05-10T08:52:30;100560.06;;;18.98;27.92
80382;BME280;69692;55.820;37.490;2023-05-10T08:54:58;100558.53;;;19.18;25.41
80382;BME280;69692;55.820;37.490;2023-05-10T08:57:24;100554.22;;;19.22;24.72
80382;BME280;69692;55.820;37.490;2023-05-10T08:59:50;100550.53;;;19.01;22.90
80382;BME280;69692;55.820;37.490;2023-05-10T09:02:18;100544.47;;;18.52;23.20
80382;BME280;69692;55.820;37.490;2023-05-10T09:04:44;100549.56;;;18.43;23.35
80382;BME280;69692;55.820;37.490;2023-05-10T09:07:10;100550.69;;;18.79;23.05
80382;BME280;69692;55.820;37.490;2023-05-10T09:09:36;100540.31;;;18.76;22.71
80382;BME280;69692;55.820;37.490;2023-05-10T09:12:02;100539.00;;;18.89;22.61
80382;BME280;69692;55.820;37.490;2023-05-10T09:14:28;100532.03;;;19.08;23.90
80382;BME280;69692;55.820;37.490;2023-05-10T09:16:55;100526.59;;;19.08;23.12
80382;BME280;69692;55.820;37.490;2023-05-10T09:19:21;100525.41;;;18.94;23.68
80382;BME280;69692;55.820;37.490;2023-05-10T09:21:48;100520.63;;;18.69;24.21
80382;BME280;69692;55.820;37.490;2023-05-10T09:24:14;100524.06;;;18.22;24.05
80382;BME280;69692;55.820;37.490;2023-05-10T09:26:47;100518.47;;;18.07;24.03
80382;BME280;69692;55.820;37.490;2023-05-10T09:29:16;100519.53;;;17.30;24.64
80382;BME280;69692;55.820;37.490;2023-05-10T09:31:50;100510.53;;;17.29;25.16
80382;BME280;69692;55.820;37.490;2023-05-10T09:34:18;100516.63;;;17.15;26.83
80382;BME280;69692;55.820;37.490;2023-05-10T09:36:58;100507.47;;;17.97;24.67
80382;BME280;69692;55.820;37.490;2023-05-10T09:39:36;100510.16;;;18.93;24.15
80382;BME280;69692;55.820;37.490;2023-05-10T09:42:04;100499.31;;;19.86;22.97
80382;BME280;69692;55.820;37.490;2023-05-10T09:44:31;100502.72;;;19.46;23.28
80382;BME280;69692;55.820;37.490;2023-05-10T09:46:58;100501.09;;;19.45;22.94
80382;BME280;69692;55.820;37.490;2023-05-10T09:49:24;100506.03;;;18.90;24.12
80382;BME280;69692;55.820;37.490;2023-05-10T09:52:16;100503.72;;;18.67;25.25
80382;BME280;69692;55.820;37.490;2023-05-10T09:54:52;100495.81;;;18.33;23.78
80382;BME280;69692;55.820;37.490;2023-05-10T09:57:22;100502.72;;;18.14;25.46
80382;BME280;69692;55.820;37.490;2023-05-10T09:59:48;100493.97;;;18.07;26.26
80382;BME280;69692;55.820;37.490;2023-05-10T10:02:14;100493.63;;;17.71;24.65
80382;BME280;69692;55.820;37.490;2023-05-10T10:04:41;100494.31;;;17.62;26.63
80382;BME280;69692;55.820;37.490;2023-05-10T10:07:07;100496.34;;;17.49;26.16
80382;BME280;69692;55.820;37.490;2023-05-10T10:09:33;100493.66;;;17.27;27.12
80382;BME280;69692;55.820;37.490;2023-05-10T10:12:01;100484.28;;;17.18;26.25
80382;BME280;69692;55.820;37.490;2023-05-10T10:14:30;100488.09;;;17.17;26.58
80382;BME280;69692;55.820;37.490;2023-05-10T10:17:00;100490.84;;;17.22;26.57
80382;BME280;69692;55.820;37.490;2023-05-10T10:19:26;100479.06;;;17.12;25.34
80382;BME280;69692;55.820;37.490;2023-05-10T10:21:52;100476.91;;;17.14;25.87
80382;BME280;69692;55.820;37.490;2023-05-10T10:24:18;100477.16;;;17.12;25.46
80382;BME280;69692;55.820;37.490;2023-05-10T10:26:44;100476.13;;;17.18;26.05
80382;BME280;69692;55.820;37.490;2023-05-10T10:31:48;100475.75;;;17.10;26.29
80382;BME280;69692;55.820;37.490;2023-05-10T10:34:27;100472.78;;;16.89;26.99
80382;BME280;69692;55.820;37.490;2023-05-10T10:36:57;100470.94;;;16.95;26.20
80382;BME280;69692;55.820;37.490;2023-05-10T10:39:26;100469.63;;;16.97;26.34
80382;BME280;69692;55.820;37.490;2023-05-10T10:41:53;100464.81;;;17.05;26.17
80382;BME280;69692;55.820;37.490;2023-05-10T10:49:38;100469.84;;;16.57;27.21
80382;BME280;69692;55.820;37.490;2023-05-10T10:52:27;100469.41;;;16.65;26.79
80382;BME280;69692;55.820;37.490;2023-05-10T10:55:17;100464.16;;;16.76;28.25
80382;BME280;69692;55.820;37.490;2023-05-10T10:57:50;100465.44;;;16.90;26.20
80382;BME280;69692;55.820;37.490;2023-05-10T11:00:29;100454.13;;;17.20;25.81
80382;BME280;69692;55.820;37.490;2023-05-10T11:03:05;100457.56;;;17.37;26.18
80382;BME280;69692;55.820;37.490;2023-05-10T11:05:44;100450.72;;;17.56;25.35
80382;BME280;69692;55.820;37.490;2023-05-10T11:08:30;100447.41;;;17.54;26.50
80382;BME280;69692;55.820;37.490;2023-05-10T11:13:44;100436.22;;;17.51;26.48
80382;BME280;69692;55.820;37.490;2023-05-10T11:16:11;100438.44;;;17.54;26.28
80382;BME280;69692;55.820;37.490;2023-05-10T11:18:37;100442.19;;;17.48;27.35
80382;BME280;69692;55.820;37.490;2023-05-10T11:21:03;100436.75;;;17.48;27.22
80382;BME280;69692;55.820;37.490;2023-05-10T11:26:07;100429.19;;;17.55;26.26
80382;BME280;69692;55.820;37.490;2023-05-10T11:28:55;100435.78;;;17.59;26.79
80382;BME280;69692;55.820;37.490;2023-05-10T11:31:22;100433.63;;;17.61;26.54
80382;BME280;69692;55.820;37.490;2023-05-10T11:33:53;100426.94;;;17.47;26.02
80382;BME280;69692;55.820;37.490;2023-05-10T11:36:20;100421.66;;;17.35;25.58
80382;BME280;69692;55.820;37.490;2023-05-10T11:38:47;100421.47;;;17.42;26.33
80382;BME280;69692;55.820;37.490;2023-05-10T11:41:15;100415.25;;;17.46;26.41
80382;BME280;69692;55.820;37.490;2023-05-10T11:43:41;100415.03;;;17.53;26.41
80382;BME280;69692;55.820;37.490;2023-05-10T11:46:08;100415.50;;;17.45;25.93
80382;BME280;69692;55.820;37.490;2023-05-10T11:48:35;100412.72;;;17.40;25.82
80382;BME280;69692;55.820;37.490;2023-05-10T11:51:01;100400.28;;;17.22;25.74
80382;BME280;69692;55.820;37.490;2023-05-10T11:53:29;100407.44;;;17.28;26.15
80382;BME280;69692;55.820;37.490;2023-05-10T11:55:55;100411.06;;;17.39;26.09
80382;BME280;69692;55.820;37.490;2023-05-10T11:58:23;100409.50;;;17.43;27.30
80382;BME280;69692;55.820;37.490;2023-05-10T12:00:49;100408.47;;;17.49;26.72
80382;BME280;69692;55.820;37.490;2023-05-10T12:03:15;100397.63;;;17.54;26.86
80382;BME280;69692;55.820;37.490;2023-05-10T12:05:41;100397.72;;;17.37;26.23
80382;BME280;69692;55.820;37.490;2023-05-10T12:08:14;100403.53;;;17.46;28.37
80382;BME280;69692;55.820;37.490;2023-05-10T12:10:41;100400.97;;;17.34;25.88
80382;BME280;69692;55.820;37.490;2023-05-10T12:13:14;100396.22;;;17.24;26.28
80382;BME280;69692;55.820;37.490;2023-05-10T12:15:41;100394.97;;;17.10;26.23
80382;BME280;69692;55.820;37.490;2023-05-10T12:18:14;100396.28;;;16.81;26.68
80382;BME280;69692;55.820;37.490;2023-05-10T12:20:40;100395.78;;;16.84;27.26
80382;BME280;69692;55.820;37.490;2023-05-10T12:23:09;100394.81;;;16.95;26.93
80382;BME280;69692;55.820;37.490;2023-05-10T12:25:36;100390.59;;;17.04;28.19
80382;BME280;69692;55.820;37.490;2023-05-10T12:28:04;100386.09;;;17.15;27.00
80382;BME280;69692;55.820;37.490;2023-05-10T12:30:32;100382.81;;;17.13;26.28
80382;BME280;69692;55.820;37.490;2023-05-10T12:33:09;100384.19;;;17.15;26.79
80382;BME280;69692;55.820;37.490;2023-05-10T12:35:48;100383.09;;;17.16;27.71
80382;BME280;69692;55.820;37.490;2023-05-10T12:38:29;100383.38;;;17.15;27.71
80382;BME280;69692;55.820;37.490;2023-05-10T12:41:02;100373.31;;;17.15;28.28
80382;BME280;69692;55.820;37.490;2023-05-10T12:43:28;100378.22;;;17.18;27.09
80382;BME280;69692;55.820;37.490;2023-05-10T12:45:54;100370.59;;;17.15;27.74
80382;BME280;69692;55.820;37.490;2023-05-10T12:48:20;100377.38;;;17.13;28.61
80382;BME280;69692;55.820;37.490;2023-05-10T12:50:46;100370.88;;;17.19;27.04
80382;BME280;69692;55.820;37.490;2023-05-10T12:53:13;100376.28;;;17.14;28.29
80382;BME280;69692;55.820;37.490;2023-05-10T12:55:41;100374.91;;;17.11;27.11
80382;BME280;69692;55.820;37.490;2023-05-10T12:58:07;100371.41;;;17.16;27.96
80382;BME280;69692;55.820;37.490;2023-05-10T13:00:33;100382.53;;;17.14;28.04
80382;BME280;69692;55.820;37.490;2023-05-10T13:02:58;100380.84;;;17.08;27.89
80382;BME280;69692;55.820;37.490;2023-05-10T13:05:24;100370.28;;;17.12;27.95
80382;BME280;69692;55.820;37.490;2023-05-10T13:07:50;100371.09;;;17.12;27.55
80382;BME280;69692;55.820;37.490;2023-05-10T13:10:16;100371.03;;;17.07;28.69
80382;BME280;69692;55.820;37.490;2023-05-10T13:12:41;100371.03;;;17.07;27.96